createdAt,value
2023-05-10T00:01:43.850Z,101091.41
2023-05-10T00:04:10.209Z,101088.50
2023-05-10T00:06:36.527Z,101089.59
2023-05-10T00:09:02.727Z,101079.34
2023-05-10T00:11:28.962Z,101070.50
2023-05-10T00:13:55.266Z,101072.78
2023-05-10T00:16:21.557Z,101065.66
2023-05-10T00:18:47.887Z,101060.28
2023-05-10T00:21:14.147Z,101052.38
2023-05-10T00:23:40.430Z,101049.59
2023-05-10T00:26:06.708Z,101043.19
2023-05-10T00:28:32.988Z,101035.19
2023-05-10T00:30:59.310Z,101031.47
2023-05-10T00:33:25.613Z,101020.75
2023-05-10T00:35:51.856Z,101018.88
2023-05-10T00:38:18.090Z,101010.13
2023-05-10T00:40:44.391Z,101002.97
2023-05-10T00:43:10.689Z,101002.88
2023-05-10T00:45:36.934Z,100996.75
2023-05-10T00:48:03.406Z,100989.13
2023-05-10T00:50:29.772Z,100989.28
2023-05-10T00:52:56.012Z,100987.75
2023-05-10T00:55:22.302Z,100980.88
2023-05-10T00:57:48.606Z,100973.16
2023-05-10T01:00:15.070Z,100969.91
2023-05-10T01:02:41.667Z,100959.56
2023-05-10T01:05:08.063Z,100963.06
2023-05-10T01:07:34.296Z,100950.72
2023-05-10T01:10:00.592Z,100948.19
2023-05-10T01:12:26.948Z,100955.66
2023-05-10T01:14:53.259Z,100952.47
2023-05-10T01:17:19.622Z,100961.47
2023-05-10T01:19:45.849Z,100944.91
2023-05-10T01:22:12.110Z,100944.91
2023-05-10T01:24:38.468Z,100950.34
2023-05-10T01:27:04.753Z,100954.78
2023-05-10T01:29:30.997Z,100943.97
2023-05-10T01:31:57.330Z,100948.13
2023-05-10T01:34:23.578Z,100945.66
2023-05-10T01:36:49.852Z,100944.81
2023-05-10T01:39:16.128Z,100940.56
2023-05-10T01:41:42.346Z,100945.16
2023-05-10T01:44:08.580Z,100935.94
2023-05-10T01:46:34.865Z,100943.19
2023-05-10T01:49:01.141Z,100942.59
2023-05-10T01:51:27.373Z,100941.91
2023-05-10T01:53:53.617Z,100948.47
2023-05-10T01:56:19.852Z,100941.66
2023-05-10T01:58:46.176Z,100945.66
2023-05-10T02:01:12.509Z,100937.94
2023-05-10T02:03:38.824Z,100942.44
2023-05-10T02:06:05.117Z,100937.19
2023-05-10T02:08:31.356Z,100940.91
2023-05-10T02:10:57.585Z,100940.13
2023-05-10T02:13:23.925Z,100936.66
2023-05-10T02:15:50.275Z,100930.47
2023-05-10T02:18:16.603Z,100930.38
2023-05-10T02:20:42.854Z,100931.16
2023-05-10T02:23:09.167Z,100932.16
2023-05-10T02:25:35.390Z,100932.25
2023-05-10T02:28:01.620Z,100925.22
2023-05-10T02:30:27.831Z,100913.72
2023-05-10T02:32:54.106Z,100917.31
2023-05-10T02:35:20.350Z,100916.59
2023-05-10T02:37:46.569Z,100918.22
2023-05-10T02:40:12.795Z,100917.31
2023-05-10T02:42:39.076Z,100907.38
2023-05-10T02:45:05.404Z,100896.84
2023-05-10T02:47:31.781Z,100903.22
2023-05-10T02:49:58.070Z,100895.16
2023-05-10T02:52:24.323Z,100887.50
2023-05-10T02:54:50.590Z,100893.78
2023-05-10T02:57:16.875Z,100892.09
2023-05-10T02:59:43.112Z,100895.75
2023-05-10T03:02:09.396Z,100889.53
2023-05-10T03:04:35.750Z,100883.16
2023-05-10T03:07:02.039Z,100880.63
2023-05-10T03:09:28.278Z,100879.75
2023-05-10T03:11:54.479Z,100880.72
2023-05-10T03:14:20.727Z,100872.91
2023-05-10T03:16:46.989Z,100863.22
2023-05-10T03:19:13.228Z,100869.19
2023-05-10T03:21:39.489Z,100864.84
2023-05-10T03:24:05.790Z,100864.16
2023-05-10T03:26:31.999Z,100854.66
2023-05-10T03:28:58.215Z,100858.13
2023-05-10T03:31:24.519Z,100853.88
2023-05-10T03:33:50.831Z,100854.84
2023-05-10T03:36:17.169Z,100849.81
2023-05-10T03:38:43.398Z,100846.22
2023-05-10T03:41:09.764Z,100851.59
2023-05-10T03:43:36.009Z,100851.69
2023-05-10T03:46:02.238Z,100849.22
2023-05-10T03:48:28.584Z,100841.50
2023-05-10T03:50:54.841Z,100837.16
2023-05-10T03:53:21.106Z,100833.75
2023-05-10T03:55:47.364Z,100826.97
2023-05-10T03:58:13.635Z,100823.66
2023-05-10T04:00:39.908Z,100828.16
2023-05-10T04:03:06.235Z,100826.81
2023-05-10T04:05:32.506Z,100827.91
2023-05-10T04:07:58.735Z,100824.44
2023-05-10T04:10:24.997Z,100818.38
2023-05-10T04:12:53.664Z,100813.34
2023-05-10T04:15:19.913Z,100814.34
2023-05-10T04:17:46.185Z,100813.59
2023-05-10T04:20:12.483Z,100803.16
2023-05-10T04:22:38.743Z,100807.66
2023-05-10T04:25:04.967Z,100803.44
2023-05-10T04:27:31.243Z,100811.38
2023-05-10T04:29:57.485Z,100807.06
2023-05-10T04:32:23.726Z,100806.91
2023-05-10T04:34:50.024Z,100806.06
2023-05-10T04:37:16.268Z,100798.25
2023-05-10T04:39:42.636Z,100806.06
2023-05-10T04:42:08.916Z,100796.38
2023-05-10T04:44:35.191Z,100803.44
2023-05-10T04:47:01.494Z,100799.88
2023-05-10T04:49:27.806Z,100797.31
2023-05-10T04:51:54.086Z,100797.41
2023-05-10T04:54:20.348Z,100799.00
2023-05-10T04:56:46.634Z,100799.00
2023-05-10T04:59:12.878Z,100794.59
2023-05-10T05:01:39.146Z,100798.94
2023-05-10T05:04:05.436Z,100788.44
2023-05-10T05:06:31.736Z,100779.69
2023-05-10T05:08:57.983Z,100783.00
2023-05-10T05:11:24.252Z,100789.25
2023-05-10T05:13:50.543Z,100792.94
2023-05-10T05:16:16.795Z,100780.69
2023-05-10T05:18:43.156Z,100783.19
2023-05-10T05:21:09.411Z,100784.84
2023-05-10T05:23:35.703Z,100786.38
2023-05-10T05:26:01.952Z,100790.63
2023-05-10T05:28:28.238Z,100781.81
2023-05-10T05:30:54.475Z,100777.31
2023-05-10T05:33:20.842Z,100790.38
2023-05-10T05:35:47.106Z,100784.19
2023-05-10T05:38:13.325Z,100784.03
2023-05-10T05:40:39.526Z,100784.34
2023-05-10T05:43:05.737Z,100779.94
2023-05-10T05:45:32.066Z,100783.28
2023-05-10T05:47:58.413Z,100778.94
2023-05-10T05:50:24.683Z,100778.06
2023-05-10T05:52:50.945Z,100774.53
2023-05-10T05:55:17.420Z,100783.88
2023-05-10T05:57:43.871Z,100780.25
2023-05-10T06:00:10.137Z,100783.78
2023-05-10T06:02:36.588Z,100781.25
2023-05-10T06:05:02.985Z,100788.38
2023-05-10T06:07:29.198Z,100792.00
2023-05-10T06:09:55.513Z,100792.78
2023-05-10T06:12:21.725Z,100791.78
2023-05-10T06:14:47.948Z,100790.66
2023-05-10T06:17:14.197Z,100800.25
2023-05-10T06:19:40.488Z,100800.34
2023-05-10T06:22:06.778Z,100797.69
2023-05-10T06:24:33.097Z,100787.19
2023-05-10T06:26:59.338Z,100791.69
2023-05-10T06:29:25.612Z,100794.66
2023-05-10T06:31:52.041Z,100785.75
2023-05-10T06:34:18.431Z,100782.25
2023-05-10T06:36:44.722Z,100777.78
2023-05-10T06:39:11.047Z,100783.03
2023-05-10T06:41:37.356Z,100790.16
2023-05-10T06:44:03.643Z,100786.50
2023-05-10T06:46:29.963Z,100792.53
2023-05-10T06:48:56.250Z,100789.81
2023-05-10T06:51:22.907Z,100785.41
2023-05-10T06:53:49.186Z,100783.53
2023-05-10T06:56:15.553Z,100785.94
2023-05-10T06:58:41.826Z,100782.09
2023-05-10T07:01:08.239Z,100780.03
2023-05-10T07:03:34.631Z,100771.31
2023-05-10T07:06:00.852Z,100774.03
2023-05-10T07:08:27.088Z,100763.50
2023-05-10T07:10:53.324Z,100753.69
2023-05-10T07:13:19.695Z,100762.22
2023-05-10T07:15:46.059Z,100761.03
2023-05-10T07:18:12.399Z,100755.69
2023-05-10T07:20:38.695Z,100755.31
2023-05-10T07:23:04.952Z,100754.16
2023-05-10T07:25:31.246Z,100756.59
2023-05-10T07:27:57.452Z,100753.09
2023-05-10T07:30:23.891Z,100755.13
2023-05-10T07:32:50.292Z,100755.78
2023-05-10T07:35:16.844Z,100753.06
2023-05-10T07:37:43.332Z,100749.31
2023-05-10T07:40:09.635Z,100748.88
2023-05-10T07:42:35.909Z,100754.97
2023-05-10T07:45:02.219Z,100741.63
2023-05-10T07:47:28.568Z,100745.13
2023-05-10T07:49:54.838Z,100745.38
2023-05-10T07:52:22.661Z,100750.81
2023-05-10T07:54:49.275Z,100744.78
2023-05-10T07:57:15.543Z,100748.47
2023-05-10T07:59:41.742Z,100753.91
2023-05-10T08:02:08.021Z,100754.75
2023-05-10T08:04:34.355Z,100754.00
2023-05-10T08:07:00.639Z,100753.25
2023-05-10T08:09:26.930Z,100748.91
2023-05-10T08:11:53.159Z,100750.03
2023-05-10T08:14:19.420Z,100755.28
2023-05-10T08:16:45.685Z,100744.38
2023-05-10T08:19:12.026Z,100755.16
2023-05-10T08:21:38.257Z,100759.66
2023-05-10T08:24:04.486Z,100759.00
2023-05-10T08:26:30.723Z,100753.66
2023-05-10T08:28:56.977Z,100761.53
2023-05-10T08:31:23.273Z,100755.41
2023-05-10T08:33:49.535Z,100746.50
2023-05-10T08:36:15.759Z,100750.16
2023-05-10T08:38:42.075Z,100745.66
2023-05-10T08:41:08.377Z,100743.97
2023-05-10T08:43:34.639Z,100738.88
2023-05-10T08:46:00.929Z,100741.41
2023-05-10T08:48:27.178Z,100737.94
2023-05-10T08:50:53.402Z,100740.59
2023-05-10T08:53:19.653Z,100744.91
2023-05-10T08:55:45.969Z,100737.84
2023-05-10T08:58:12.230Z,100733.50
2023-05-10T09:00:38.524Z,100738.00
2023-05-10T09:03:04.958Z,100740.59
2023-05-10T09:05:31.358Z,100748.38
2023-05-10T09:07:57.650Z,100739.63
2023-05-10T09:10:24.176Z,100746.50
2023-05-10T09:12:50.403Z,100749.16
2023-05-10T09:15:16.901Z,100748.94
2023-05-10T09:17:43.409Z,100741.16
2023-05-10T09:20:09.683Z,100743.03
2023-05-10T09:22:35.898Z,100740.22
2023-05-10T09:25:02.180Z,100740.81
2023-05-10T09:27:28.475Z,100738.72
2023-05-10T09:29:54.675Z,100739.44
2023-05-10T09:32:20.939Z,100738.38
2023-05-10T09:34:47.158Z,100735.69
2023-05-10T09:37:13.373Z,100736.44
2023-05-10T09:39:39.748Z,100729.47
2023-05-10T09:42:06.019Z,100730.47
2023-05-10T09:44:32.258Z,100726.94
2023-05-10T09:46:58.518Z,100714.53
2023-05-10T09:49:24.777Z,100717.81
2023-05-10T09:51:51.051Z,100720.53
2023-05-10T09:54:17.286Z,100722.16
2023-05-10T09:56:43.585Z,100714.31
2023-05-10T09:59:09.805Z,100708.13
2023-05-10T10:01:36.168Z,100716.78
2023-05-10T10:04:02.479Z,100706.06
2023-05-10T10:06:30.370Z,100710.16
2023-05-10T10:08:56.900Z,100712.78
2023-05-10T10:11:23.335Z,100708.28
2023-05-10T10:13:49.580Z,100705.53
2023-05-10T10:16:15.810Z,100706.28
2023-05-10T10:18:42.197Z,100711.66
2023-05-10T10:21:08.419Z,100709.03
2023-05-10T10:23:34.649Z,100708.81
2023-05-10T10:26:00.860Z,100706.09
2023-05-10T10:28:28.333Z,100701.78
2023-05-10T10:30:54.708Z,100700.50
2023-05-10T10:35:53.352Z,100699.56
2023-05-10T10:38:19.590Z,100699.47
2023-05-10T10:40:45.787Z,100695.56
2023-05-10T10:43:12.049Z,100693.13
2023-05-10T10:45:38.654Z,100693.22
2023-05-10T10:48:05.662Z,100691.25
2023-05-10T10:50:31.947Z,100694.47
2023-05-10T10:52:58.291Z,100694.84
2023-05-10T10:55:24.569Z,100689.53
2023-05-10T10:57:50.829Z,100691.28
2023-05-10T11:00:17.051Z,100680.38
2023-05-10T11:02:43.377Z,100685.81
2023-05-10T11:05:09.693Z,100686.13
2023-05-10T11:07:36.096Z,100684.69
2023-05-10T11:10:02.362Z,100684.69
2023-05-10T11:12:28.621Z,100682.00
2023-05-10T11:14:54.849Z,100687.16
2023-05-10T11:17:21.083Z,100683.41
2023-05-10T11:19:47.415Z,100675.78
2023-05-10T11:22:13.689Z,100674.44
2023-05-10T11:24:39.962Z,100673.97
2023-05-10T11:27:06.225Z,100674.91
2023-05-10T11:29:32.473Z,100682.06
2023-05-10T11:31:58.792Z,100676.63
2023-05-10T11:34:25.072Z,100675.13
2023-05-10T11:36:51.352Z,100674.44
2023-05-10T11:39:17.642Z,100677.38
2023-05-10T11:41:43.896Z,100672.00
2023-05-10T11:44:10.127Z,100669.28
2023-05-10T11:46:36.384Z,100673.50
2023-05-10T11:49:02.716Z,100671.72
2023-05-10T11:51:29.163Z,100671.63
2023-05-10T11:53:55.473Z,100673.22
2023-05-10T11:56:21.728Z,100665.97
2023-05-10T11:58:47.959Z,100664.00
2023-05-10T12:01:14.214Z,100662.31
2023-05-10T12:03:40.615Z,100665.69
2023-05-10T12:06:06.986Z,100676.88
2023-05-10T12:08:33.231Z,100669.63
2023-05-10T12:10:59.468Z,100668.59
2023-05-10T12:13:25.773Z,100671.97
2023-05-10T12:15:52.295Z,100671.22
2023-05-10T12:18:18.652Z,100675.25
2023-05-10T12:20:45.022Z,100674.13
2023-05-10T12:23:11.287Z,100675.09
2023-05-10T12:25:37.546Z,100667.94
2023-05-10T12:28:03.765Z,100674.72
2023-05-10T12:30:30.070Z,100669.31
2023-05-10T12:32:56.428Z,100670.72
2023-05-10T12:35:22.714Z,100666.19
2023-05-10T12:37:48.937Z,100665.28
2023-05-10T12:40:15.350Z,100664.13
2023-05-10T12:42:41.855Z,100664.03
2023-05-10T12:45:08.132Z,100670.22
2023-05-10T12:47:34.430Z,100668.25
2023-05-10T12:50:00.722Z,100669.19
2023-05-10T12:52:26.962Z,100674.69
2023-05-10T12:54:53.256Z,100672.13
2023-05-10T12:57:19.519Z,100670.72
2023-05-10T12:59:45.797Z,100672.63
2023-05-10T13:02:12.002Z,100671.97
2023-05-10T13:04:38.271Z,100672.53
2023-05-10T13:07:04.551Z,100668.69
2023-05-10T13:09:30.833Z,100669.47
2023-05-10T13:11:57.111Z,100671.53
2023-05-10T13:14:23.423Z,100667.38
2023-05-10T13:16:49.693Z,100668.25
2023-05-10T13:19:16.032Z,100667.22
2023-05-10T13:21:42.436Z,100660.81
2023-05-10T13:24:08.681Z,100656.72
2023-05-10T13:26:34.950Z,100650.63
2023-05-10T13:29:01.202Z,100655.00
2023-05-10T13:31:27.467Z,100655.53
2023-05-10T13:33:53.701Z,100648.56
2023-05-10T13:36:19.972Z,100651.09
2023-05-10T13:38:46.230Z,100651.81
2023-05-10T13:41:12.414Z,100649.31
2023-05-10T13:43:38.651Z,100646.38
2023-05-10T13:46:04.934Z,100633.31
2023-05-10T13:48:31.197Z,100632.41
2023-05-10T13:50:57.494Z,100628.59
2023-05-10T13:53:23.717Z,100629.84
2023-05-10T13:55:49.992Z,100635.41
2023-05-10T13:58:16.281Z,100648.91
2023-05-10T14:00:42.516Z,100657.16
2023-05-10T14:03:08.879Z,100656.91
2023-05-10T14:05:35.133Z,100650.91
2023-05-10T14:08:02.673Z,100659.84
2023-05-10T14:10:28.896Z,100651.19
2023-05-10T14:12:55.178Z,100664.16
2023-05-10T14:15:21.537Z,100660.13
2023-05-10T14:17:47.858Z,100666.06
2023-05-10T14:20:14.104Z,100658.81
2023-05-10T14:22:40.469Z,100672.97
2023-05-10T14:25:06.762Z,100684.19
2023-05-10T14:27:33.033Z,100682.53
2023-05-10T14:29:59.248Z,100699.28
2023-05-10T14:32:25.548Z,100695.81
2023-05-10T14:34:51.787Z,100707.59
2023-05-10T14:37:18.037Z,100709.47
2023-05-10T14:39:44.393Z,100709.16
2023-05-10T14:42:13.367Z,100706.19
2023-05-10T14:44:39.583Z,100714.56
2023-05-10T14:47:05.822Z,100716.97
2023-05-10T14:49:32.017Z,100724.09
2023-05-10T14:51:58.258Z,100717.31
2023-05-10T14:54:24.463Z,100715.44
2023-05-10T14:56:50.691Z,100714.03
2023-05-10T14:59:16.945Z,100717.13
2023-05-10T15:01:43.650Z,100711.19
2023-05-10T15:04:10.413Z,100708.38
2023-05-10T15:06:37.043Z,100710.06
2023-05-10T15:09:03.285Z,100712.88
2023-05-10T15:11:29.541Z,100704.72
2023-05-10T15:13:55.856Z,100708.38
2023-05-10T15:16:22.202Z,100709.41
2023-05-10T15:18:48.586Z,100711.66
2023-05-10T15:21:14.872Z,100717.41
2023-05-10T15:23:41.148Z,100720.91
2023-05-10T15:26:07.417Z,100727.94
2023-05-10T15:28:34.403Z,100719.88
2023-05-10T15:31:00.860Z,100709.41
2023-05-10T15:33:27.108Z,100717.81
2023-05-10T15:35:53.417Z,100717.06
2023-05-10T15:38:19.641Z,100722.16
2023-05-10T15:40:45.877Z,100724.97
2023-05-10T15:43:12.094Z,100713.88
2023-05-10T15:45:38.326Z,100714.63
2023-05-10T15:48:04.812Z,100728.44
2023-05-10T15:50:31.149Z,100719.59
2023-05-10T15:52:57.466Z,100720.28
2023-05-10T15:55:23.676Z,100720.09
2023-05-10T15:57:49.955Z,100720.69
2023-05-10T16:00:16.164Z,100722.34
2023-05-10T16:02:42.765Z,100731.28
2023-05-10T16:05:09.066Z,100728.56
2023-05-10T16:07:35.356Z,100723.97
2023-05-10T16:10:01.670Z,100728.22
2023-05-10T16:12:27.982Z,100725.91
2023-05-10T16:14:54.238Z,100733.81
2023-05-10T16:17:20.625Z,100734.28
2023-05-10T16:19:47.021Z,100746.91
2023-05-10T16:22:13.402Z,100747.94
2023-05-10T16:24:39.754Z,100748.69
2023-05-10T16:27:06.045Z,100748.31
2023-05-10T16:29:32.357Z,100752.66
2023-05-10T16:31:58.645Z,100757.81
2023-05-10T16:34:24.972Z,100759.16
2023-05-10T16:36:51.192Z,100765.34
2023-05-10T16:39:17.474Z,100764.69
2023-05-10T16:41:43.739Z,100767.31
2023-05-10T16:44:10.027Z,100765.34
2023-05-10T16:46:36.378Z,100767.22
2023-05-10T16:49:02.646Z,100764.41
2023-05-10T16:51:28.865Z,100761.28
2023-05-10T16:53:55.156Z,100758.91
2023-05-10T16:56:21.510Z,100763.69
2023-05-10T16:58:47.809Z,100762.22
2023-05-10T17:01:14.087Z,100757.53
2023-05-10T17:03:40.484Z,100760.81
2023-05-10T17:06:06.800Z,100767.88
2023-05-10T17:08:33.041Z,100767.81
2023-05-10T17:10:59.517Z,100760.25
2023-05-10T17:13:25.816Z,100765.44
2023-05-10T17:15:52.146Z,100760.81
2023-05-10T17:18:18.501Z,100761.94
2023-05-10T17:20:44.765Z,100767.31
2023-05-10T17:23:11.089Z,100758.91
2023-05-10T17:25:37.368Z,100762.13
2023-05-10T17:28:03.642Z,100765.53
2023-05-10T17:30:29.886Z,100758.09
2023-05-10T17:32:56.267Z,100764.72
2023-05-10T17:35:22.676Z,100766.09
2023-05-10T17:37:48.954Z,100766.56
2023-05-10T17:40:15.188Z,100771.16
2023-05-10T17:42:41.463Z,100761.59
2023-05-10T17:45:07.788Z,100768.53
2023-05-10T17:47:34.101Z,100773.63
2023-05-10T17:50:00.441Z,100777.13
2023-05-10T17:52:26.754Z,100790.59
2023-05-10T17:54:52.999Z,100805.91
2023-05-10T17:57:19.274Z,100825.16
2023-05-10T17:59:45.550Z,100827.72
2023-05-10T18:02:11.857Z,100839.75
2023-05-10T18:04:38.244Z,100835.59
2023-05-10T18:07:04.539Z,100827.53
2023-05-10T18:09:30.749Z,100823.00
2023-05-10T18:11:56.982Z,100823.97
2023-05-10T18:14:38.919Z,100818.84
2023-05-10T18:17:05.924Z,100816.13
2023-05-10T18:19:32.348Z,100815.09
2023-05-10T18:21:58.589Z,100811.38
2023-05-10T18:24:37.572Z,100814.50
2023-05-10T18:27:05.666Z,100817.44
2023-05-10T18:29:32.085Z,100816.84
2023-05-10T18:31:58.387Z,100817.06
2023-05-10T18:34:24.689Z,100821.66
2023-05-10T18:36:50.942Z,100815.88
2023-05-10T18:39:17.199Z,100814.34
2023-05-10T18:41:43.495Z,100808.59
2023-05-10T18:44:09.730Z,100816.63
2023-05-10T18:46:36.026Z,100818.66
2023-05-10T18:49:02.275Z,100822.28
2023-05-10T18:51:28.596Z,100818.97
2023-05-10T18:53:54.829Z,100820.91
2023-05-10T18:56:21.108Z,100821.06
2023-05-10T18:58:47.307Z,100822.84
2023-05-10T19:01:13.654Z,100818.59
2023-05-10T19:03:39.951Z,100818.00
2023-05-10T19:06:06.214Z,100814.50
2023-05-10T19:08:33.130Z,100821.72
2023-05-10T19:10:59.524Z,100816.59
2023-05-10T19:13:26.558Z,100820.41
2023-05-10T19:15:52.976Z,100816.13
2023-05-10T19:18:22.227Z,100825.91
2023-05-10T19:20:49.318Z,100824.38
2023-05-10T19:23:16.126Z,100822.75
2023-05-10T19:25:42.337Z,100826.44
2023-05-10T19:28:09.671Z,100831.91
2023-05-10T19:30:36.539Z,100829.47
2023-05-10T19:33:05.103Z,100836.63
2023-05-10T19:35:31.752Z,100841.97
2023-05-10T19:37:58.833Z,100835.03
2023-05-10T19:40:26.083Z,100843.78
2023-05-10T19:42:53.485Z,100837.66
2023-05-10T19:45:19.938Z,100843.09
2023-05-10T19:47:46.499Z,100836.22
2023-05-10T19:50:13.802Z,100838.06
2023-05-10T19:52:40.335Z,100840.00
2023-05-10T19:55:06.737Z,100841.00
2023-05-10T19:57:33.189Z,100846.41
2023-05-10T20:00:00.148Z,100855.97
2023-05-10T20:02:26.557Z,100849.81
2023-05-10T20:04:52.863Z,100853.19
2023-05-10T20:07:19.135Z,100848.94
2023-05-10T20:09:45.355Z,100850.00
2023-05-10T20:12:12.435Z,100849.25
2023-05-10T20:14:38.841Z,100856.34
2023-05-10T20:17:05.264Z,100859.03
2023-05-10T20:19:31.561Z,100858.28
2023-05-10T20:21:57.877Z,100848.75
2023-05-10T20:24:24.126Z,100854.09
2023-05-10T20:26:50.449Z,100854.16
2023-05-10T20:29:18.464Z,100857.84
2023-05-10T20:31:44.902Z,100854.47
2023-05-10T20:34:11.310Z,100852.84
2023-05-10T20:36:37.649Z,100850.34
2023-05-10T20:39:03.944Z,100851.19
2023-05-10T20:41:30.931Z,100846.94
2023-05-10T20:43:58.724Z,100847.19
2023-05-10T20:46:25.136Z,100842.16
2023-05-10T20:48:52.063Z,100846.69
2023-05-10T20:51:19.206Z,100842.44
2023-05-10T20:53:45.637Z,100841.75
2023-05-10T20:56:11.900Z,100842.72
2023-05-10T20:58:38.448Z,100842.72
2023-05-10T21:01:04.675Z,100843.63
2023-05-10T21:03:31.015Z,100847.19
2023-05-10T21:05:57.278Z,100855.06
2023-05-10T21:08:23.643Z,100850.72
2023-05-10T21:10:50.019Z,100852.53
2023-05-10T21:13:16.312Z,100852.56
2023-05-10T21:15:42.572Z,100853.63
2023-05-10T21:18:08.851Z,100858.88
2023-05-10T21:20:35.102Z,100856.22
2023-05-10T21:23:01.385Z,100861.50
2023-05-10T21:25:27.730Z,100861.56
2023-05-10T21:27:54.615Z,100863.34
2023-05-10T21:30:20.937Z,100857.31
2023-05-10T21:32:47.216Z,100859.03
2023-05-10T21:35:13.584Z,100858.19
2023-05-10T21:37:39.912Z,100864.47
2023-05-10T21:40:06.158Z,100863.78
2023-05-10T21:42:32.451Z,100867.31
2023-05-10T21:44:58.737Z,100858.66
2023-05-10T21:47:24.967Z,100849.88
2023-05-10T21:49:51.216Z,100859.72
2023-05-10T21:52:17.504Z,100868.53
2023-05-10T21:54:43.748Z,100876.38
2023-05-10T21:57:09.977Z,100885.16
2023-05-10T21:59:36.245Z,100873.84
2023-05-10T22:02:02.524Z,100877.28
2023-05-10T22:04:28.824Z,100878.22
2023-05-10T22:06:55.134Z,100886.16
2023-05-10T22:09:21.453Z,100876.50
2023-05-10T22:11:47.674Z,100879.13
2023-05-10T22:14:13.901Z,100881.91
2023-05-10T22:16:40.239Z,100882.84
2023-05-10T22:19:06.758Z,100880.25
2023-05-10T22:21:33.134Z,100884.53
2023-05-10T22:23:59.375Z,100880.25
2023-05-10T22:26:25.622Z,100881.13
2023-05-10T22:28:51.974Z,100883.75
2023-05-10T22:31:18.202Z,100872.47
2023-05-10T22:33:44.430Z,100884.78
2023-05-10T22:36:10.707Z,100881.38
2023-05-10T22:38:36.906Z,100876.28
2023-05-10T22:41:03.120Z,100871.03
2023-05-10T22:43:29.370Z,100878.13
2023-05-10T22:45:55.613Z,100874.84
2023-05-10T22:48:21.892Z,100880.22
2023-05-10T22:50:48.198Z,100872.47
2023-05-10T22:53:14.540Z,100866.59
2023-05-10T22:55:40.845Z,100877.13
2023-05-10T22:58:07.126Z,100879.81
2023-05-10T23:00:33.452Z,100875.53
2023-05-10T23:02:59.827Z,100873.03
2023-05-10T23:05:26.383Z,100870.47
2023-05-10T23:07:52.720Z,100866.22
2023-05-10T23:10:19.350Z,100864.56
2023-05-10T23:12:45.754Z,100869.81
2023-05-10T23:15:11.968Z,100861.13
2023-05-10T23:17:38.280Z,100857.72
2023-05-10T23:20:04.555Z,100864.78
2023-05-10T23:22:30.821Z,100858.63
2023-05-10T23:24:57.076Z,100860.44
2023-05-10T23:27:23.304Z,100859.66
2023-05-10T23:29:49.620Z,100856.34
2023-05-10T23:32:15.961Z,100849.47
2023-05-10T23:34:42.340Z,100849.53
2023-05-10T23:37:08.561Z,100855.75
2023-05-10T23:39:34.802Z,100851.44
2023-05-10T23:42:01.036Z,100847.97
2023-05-10T23:44:27.289Z,100847.09
2023-05-10T23:46:53.522Z,100841.00
2023-05-10T23:49:19.820Z,100846.25
2023-05-10T23:51:46.070Z,100859.34
2023-05-10T23:54:12.294Z,100853.28
2023-05-10T23:56:38.555Z,100846.47
2023-05-10T23:59:04.794Z,100847.38
